Messwerte Ranchi

Temperatur

Temperatur
°C
1614486600 10.00 10.00 29
1614490200 11.00 11.00 30
1614493800 12.00 12.00 31
1614497400 13.00 13.00 32
1614501000 14.00 14.00 32
1614504600 15.00 15.00 34
1614508200 16.00 16.00 33
1614511800 17.00 17.00 32
1614515400 18.00 18.00 30
1614519000 19.00 19.00 28
1614522600 20.00 20.00 26
1614526200 21.00 21.00 24
1614529800 22.00 22.00
1614533400 23.00 23.00 22
1614537000 0.00 0.00 22
1614540600 1.00 1.00
1614544200 2.00 2.00
1614547800 3.00 3.00
1614551400 4.00 4.00 21
1614555000 5.00 5.00 21
1614558600 6.00 6.00 19
1614562200 7.00 7.00 19
1614565800 8.00 8.00 23
1614569400 9.00 9.00 26

Aktuellste Messwerte

Wettercharakter
Wetter: recht sonnig
Temperatur
28 °C
Feuchtigkeit
30 %
Wind
5 km/hWindrichtung: Nordwest
Luftdruck
1017 hPa
Messzeit: 1. März 2021, 9.30Datenquelle: METAR

Weitere Messstationen in der Nähe

Messstation Temperatur Entfernung
Jamshedpur 30 °C 104 km
Gaya 27 °C 163 km
Jharsuguda 29 °C 201 km
Patna 23 °C 254 km
Kalkutta / Kolkata 27 °C 329 km
Bhubaneshwar 28 °C 345 km
Kathmandu - 487 km

Wind

Windrichtung Böen Mittelwind
° km/h km/h
1614486600 10.00 9.00 - 10.00 260° 10
1614490200 11.00 10.00 - 11.00 350° 5
1614493800 12.00 11.00 - 12.00 250° 5
1614497400 13.00 12.00 - 13.00 250° 10
1614501000 14.00 13.00 - 14.00 230° 10
1614504600 15.00 14.00 - 15.00 250° 0
1614508200 16.00 15.00 - 16.00 360° 10
1614511800 17.00 16.00 - 17.00 30° 5
1614515400 18.00 17.00 - 18.00 20° 0
1614519000 19.00 18.00 - 19.00 0
1614522600 20.00 19.00 - 20.00 0
1614526200 21.00 20.00 - 21.00 0
1614529800 22.00 21.00 - 22.00
1614533400 23.00 22.00 - 23.00 0
1614537000 0.00 23.00 - 0.00 0
1614540600 1.00 0.00 - 1.00
1614544200 2.00 1.00 - 2.00
1614547800 3.00 2.00 - 3.00
1614551400 4.00 3.00 - 4.00 0
1614555000 5.00 4.00 - 5.00 0
1614558600 6.00 5.00 - 6.00 0
1614562200 7.00 6.00 - 7.00 0
1614565800 8.00 7.00 - 8.00 0
1614569400 9.00 8.00 - 9.00 250° 5

Ihre Wetterstation

Fehlt Ihre Wetterstation auf unserem Portal?

Schreiben Sie an network@meteonews.ch

Klima

Wann ist es am wärmsten? Wann regnet es am wenigsten? Unsere Klimadaten geben Auskunft.